Time;durP1;ratioP1;P1;durP2;ratioP2;P2;SDS_P1;SDS_P2;PMS_P1;PMS_P2;Temp;Humidity;BMP_temperature;BMP_pressure;BME280_temperature;BME280_humidity;BME280_pressure;Samples;Min_cycle;Max_cycle;Signal;HPM_P1;HPM_P2
2023/07/07 00:02:22;;;;;;;1.85;1.10;;;26.90;52.30;;;;;;10535484;28;20142;-39
2023/07/07 00:07:24;;;;;;;2.10;1.27;;;26.80;51.80;;;;;;10548820;28;20144;-40
2023/07/07 00:12:26;;;;;;;3.08;1.20;;;26.80;51.80;;;;;;10552122;28;20158;-40
2023/07/07 00:17:29;;;;;;;3.15;1.42;;;26.70;51.90;;;;;;10536239;28;20135;-39
2023/07/07 00:22:31;;;;;;;1.55;1.00;;;26.70;52.00;;;;;;10536019;28;20396;-39
2023/07/07 00:27:33;;;;;;;1.75;1.00;;;26.70;52.00;;;;;;10537361;28;20480;-41
2023/07/07 00:32:37;;;;;;;2.25;1.23;;;26.70;52.10;;;;;;10536441;28;20127;-40
2023/07/07 00:37:38;;;;;;;2.88;1.17;;;26.60;52.10;;;;;;10536483;28;20134;-39
2023/07/07 00:42:40;;;;;;;3.47;1.10;;;26.50;52.20;;;;;;10535021;28;20481;-35
2023/07/07 00:47:52;;;;;;;2.88;1.08;;;26.50;52.20;;;;;;10545612;28;20075;-39
2023/07/07 00:52:54;;;;;;;2.47;1.05;;;26.50;52.40;;;;;;10536082;28;20067;-40
2023/07/07 00:57:56;;;;;;;2.22;1.30;;;26.40;52.40;;;;;;10524615;28;20059;-40
2023/07/07 01:03:04;;;;;;;1.65;1.00;;;26.40;52.40;;;;;;10528120;28;20044;-39
2023/07/07 01:08:07;;;;;;;3.33;1.27;;;26.40;52.50;;;;;;10537259;28;20134;-38
2023/07/07 01:13:09;;;;;;;1.70;1.10;;;26.30;52.50;;;;;;10525701;28;20050;-44
2023/07/07 01:18:23;;;;;;;2.30;1.38;;;26.30;52.50;;;;;;10531404;28;20083;-38
2023/07/07 01:23:56;;;;;;;3.10;1.30;;;26.20;52.50;;;;;;10523532;28;20037;-35
2023/07/07 01:29:14;;;;;;;1.35;0.90;;;26.20;52.60;;;;;;10531390;28;20040;-35
2023/07/07 01:34:18;;;;;;;6.35;1.02;;;26.20;52.60;;;;;;10531186;28;20100;-39
2023/07/07 01:39:22;;;;;;;1.98;1.00;;;26.20;52.70;;;;;;10532043;28;20058;-43
2023/07/07 01:44:33;;;;;;;3.95;1.10;;;26.10;52.70;;;;;;10537422;28;20123;-39
2023/07/07 01:49:41;;;;;;;2.67;1.00;;;26.10;52.80;;;;;;10533333;28;20139;-38
2023/07/07 01:54:46;;;;;;;1.60;1.10;;;26.00;52.80;;;;;;10531671;28;20132;-37
2023/07/07 01:59:48;;;;;;;2.47;1.33;;;26.00;52.90;;;;;;10533041;28;20054;-39
2023/07/07 02:04:51;;;;;;;2.88;1.05;;;25.90;53.40;;;;;;10526940;28;20705;-34
2023/07/07 02:09:53;;;;;;;1.95;0.98;;;25.90;52.90;;;;;;10532869;28;20044;-40
2023/07/07 02:14:55;;;;;;;2.03;1.20;;;25.80;53.00;;;;;;10532115;28;20219;-37
2023/07/07 02:19:58;;;;;;;2.67;1.20;;;25.80;53.00;;;;;;10532880;28;20134;-35
2023/07/07 02:25:00;;;;;;;1.75;0.80;;;25.80;53.00;;;;;;10532011;28;20452;-38
2023/07/07 02:30:02;;;;;;;1.60;1.20;;;25.70;53.00;;;;;;10531869;28;20060;-38
2023/07/07 02:35:07;;;;;;;1.65;0.75;;;25.70;53.10;;;;;;10531790;28;20425;-39
2023/07/07 02:40:10;;;;;;;2.97;1.05;;;25.70;53.20;;;;;;10532364;28;20127;-36
2023/07/07 02:45:12;;;;;;;1.92;1.13;;;25.60;53.10;;;;;;10531574;28;20396;-38
2023/07/07 02:50:15;;;;;;;1.88;0.93;;;25.60;53.20;;;;;;10526329;28;20044;-37
2023/07/07 02:55:17;;;;;;;1.60;0.82;;;25.50;53.20;;;;;;10531004;28;20437;-34
2023/07/07 03:15:38;;;;;;;1.33;1.02;;;25.60;52.70;;;;;;10513135;27;20136;-33
2023/07/07 03:20:47;;;;;;;3.20;1.20;;;25.40;53.30;;;;;;10524405;28;20041;-33
2023/07/07 03:25:49;;;;;;;1.50;1.10;;;25.40;53.50;;;;;;10514194;28;20056;-33
2023/07/07 03:30:52;;;;;;;2.00;1.10;;;25.30;53.60;;;;;;10525450;28;20466;-33
2023/07/07 03:35:54;;;;;;;1.45;1.17;;;25.30;53.50;;;;;;10516893;28;20499;-31
2023/07/07 03:40:56;;;;;;;1.10;1.00;;;25.30;53.60;;;;;;10508104;28;20467;-33
2023/07/07 03:45:59;;;;;;;1.38;1.00;;;25.30;53.60;;;;;;10513582;28;20048;-34
2023/07/07 03:51:03;;;;;;;1.30;0.90;;;25.20;53.70;;;;;;10505838;28;20089;-38
2023/07/07 03:56:06;;;;;;;1.52;0.90;;;25.20;53.70;;;;;;10510739;28;20051;-40
2023/07/07 04:01:12;;;;;;;2.85;1.27;;;25.20;53.70;;;;;;10521064;28;20078;-39
2023/07/07 04:06:15;;;;;;;3.22;1.30;;;25.20;53.80;;;;;;10501575;28;20142;-40
2023/07/07 04:11:19;;;;;;;1.35;1.25;;;25.20;53.90;;;;;;10497567;28;20062;-39
2023/07/07 04:16:24;;;;;;;1.85;1.42;;;25.10;53.80;;;;;;10512505;28;20051;-36
2023/07/07 04:21:27;;;;;;;1.65;1.05;;;25.10;53.90;;;;;;10505924;28;20147;-37
2023/07/07 04:26:31;;;;;;;2.05;1.30;;;25.10;53.90;;;;;;10483434;28;20132;-40
2023/07/07 04:31:34;;;;;;;1.27;1.17;;;25.10;53.90;;;;;;10491768;28;20083;-39
2023/07/07 04:36:36;;;;;;;2.65;1.38;;;25.10;53.90;;;;;;10492935;28;20048;-42
2023/07/07 04:41:38;;;;;;;2.28;1.10;;;25.10;53.80;;;;;;10481655;28;20161;-34
2023/07/07 04:46:41;;;;;;;2.80;1.25;;;25.10;53.80;;;;;;10479756;28;20131;-37
2023/07/07 04:51:43;;;;;;;2.35;1.30;;;25.10;53.80;;;;;;10484365;28;20079;-35
2023/07/07 04:56:45;;;;;;;3.20;1.33;;;25.10;53.90;;;;;;10479718;28;20106;-41
2023/07/07 05:01:48;;;;;;;2.70;1.40;;;25.10;53.90;;;;;;10491140;28;20694;-42
2023/07/07 05:06:50;;;;;;;1.80;1.17;;;25.10;53.90;;;;;;10489476;28;20490;-35
2023/07/07 05:11:52;;;;;;;3.33;1.27;;;25.10;53.80;;;;;;10496004;28;20095;-37
2023/07/07 05:16:56;;;;;;;3.65;1.40;;;25.00;53.80;;;;;;10484816;28;20131;-40
2023/07/07 05:21:58;;;;;;;4.43;1.42;;;25.10;53.90;;;;;;10483429;28;20055;-38
2023/07/07 05:27:00;;;;;;;1.75;1.48;;;25.10;53.90;;;;;;10487218;28;20074;-41
2023/07/07 05:32:03;;;;;;;3.88;1.60;;;25.10;53.80;;;;;;10487643;28;20048;-40
2023/07/07 05:37:05;;;;;;;7.65;1.52;;;25.10;53.90;;;;;;10487123;28;20132;-37
2023/07/07 05:42:08;;;;;;;3.97;1.90;;;25.10;53.80;;;;;;10488681;28;20048;-42
2023/07/07 05:47:11;;;;;;;2.78;1.45;;;25.10;53.80;;;;;;10462278;28;20044;-39
2023/07/07 05:52:14;;;;;;;3.03;1.92;;;25.10;53.80;;;;;;10475207;28;20090;-39
2023/07/07 05:57:16;;;;;;;3.60;1.73;;;25.10;53.70;;;;;;10474913;28;20065;-43
2023/07/07 06:02:19;;;;;;;3.28;1.70;;;25.10;53.60;;;;;;10481587;28;21201;-40
2023/07/07 06:07:21;;;;;;;4.47;1.70;;;25.20;53.70;;;;;;10482784;28;20071;-39
2023/07/07 06:12:22;;;;;;;3.90;1.40;;;25.00;53.80;;;;;;10484262;28;20121;-35
2023/07/07 06:17:26;;;;;;;2.80;1.67;;;25.10;53.70;;;;;;10483795;28;20128;-37
2023/07/07 06:22:28;;;;;;;2.95;1.60;;;25.10;53.60;;;;;;10486811;28;20453;-38
2023/07/07 06:27:29;;;;;;;4.43;1.60;;;25.10;53.60;;;;;;10487482;28;20112;-41
2023/07/07 06:32:33;;;;;;;2.40;1.40;;;25.10;53.60;;;;;;10482509;28;20080;-39
2023/07/07 06:37:34;;;;;;;7.15;1.40;;;25.20;53.30;;;;;;10485336;28;20056;-37
2023/07/07 06:42:36;;;;;;;2.35;1.42;;;25.30;53.40;;;;;;10485802;28;20553;-38
2023/07/07 06:47:40;;;;;;;2.35;1.40;;;25.20;53.00;;;;;;10474117;28;20127;-39
2023/07/07 06:52:41;;;;;;;3.22;1.58;;;25.30;53.50;;;;;;10477097;28;20140;-37
2023/07/07 06:57:43;;;;;;;4.88;1.48;;;25.30;53.30;;;;;;10486880;28;20521;-35
2023/07/07 07:02:47;;;;;;;1.67;1.48;;;25.40;53.20;;;;;;10490470;28;20056;-40
2023/07/07 07:07:49;;;;;;;2.33;1.50;;;25.50;53.20;;;;;;10476000;28;20091;-40
2023/07/07 07:12:51;;;;;;;2.92;1.52;;;25.50;53.20;;;;;;10473626;28;20056;-39
2023/07/07 07:17:54;;;;;;;3.63;1.17;;;25.50;53.00;;;;;;10482821;28;20507;-37
2023/07/07 07:22:56;;;;;;;2.85;1.40;;;25.50;52.80;;;;;;10470273;28;20165;-38
2023/07/07 07:27:58;;;;;;;4.20;1.70;;;25.60;52.90;;;;;;10478363;28;20052;-38
2023/07/07 07:33:04;;;;;;;1.70;1.33;;;25.60;52.90;;;;;;10480313;28;20051;-41
2023/07/07 07:38:06;;;;;;;2.03;1.30;;;25.60;52.80;;;;;;10475380;28;20087;-35
2023/07/07 07:43:08;;;;;;;2.08;1.20;;;25.70;52.90;;;;;;10483382;28;20044;-40
2023/07/07 07:48:11;;;;;;;2.35;1.40;;;25.60;53.00;;;;;;10474410;28;20045;-37
2023/07/07 07:53:13;;;;;;;5.10;1.75;;;25.70;52.80;;;;;;10481655;28;20135;-37
2023/07/07 07:58:15;;;;;;;2.47;1.38;;;25.90;52.40;;;;;;10484894;28;20082;-36
2023/07/07 08:03:18;;;;;;;2.85;1.30;;;25.80;52.50;;;;;;10484923;28;20136;-38
2023/07/07 08:08:20;;;;;;;4.38;1.80;;;25.80;52.50;;;;;;10499114;28;20070;-37
2023/07/07 08:13:22;;;;;;;3.38;1.42;;;25.90;52.50;;;;;;10495496;28;20147;-35
2023/07/07 08:18:25;;;;;;;2.45;1.77;;;26.00;52.30;;;;;;10486065;28;20045;-38
2023/07/07 08:23:27;;;;;;;2.75;1.30;;;26.10;52.20;;;;;;10488404;28;20056;-39
2023/07/07 08:28:29;;;;;;;4.00;1.55;;;26.00;52.50;;;;;;10485353;28;20048;-41
2023/07/07 08:33:32;;;;;;;2.85;1.45;;;25.90;51.10;;;;;;10479382;28;20441;-41
2023/07/07 08:38:34;;;;;;;2.38;1.40;;;26.40;51.50;;;;;;10476023;28;20293;-40
2023/07/07 08:43:37;;;;;;;2.88;1.77;;;26.20;51.50;;;;;;10480640;28;20565;-42
2023/07/07 08:48:45;;;;;;;2.42;1.27;;;26.20;48.80;;;;;;10465463;28;20148;-38
2023/07/07 08:53:57;;;;;;;6.88;1.95;;;26.50;51.40;;;;;;10474494;28;20493;-43
2023/07/07 08:59:10;;;;;;;3.70;1.50;;;26.40;51.30;;;;;;10482066;28;20093;-39
2023/07/07 09:04:26;;;;;;;3.45;1.67;;;26.40;50.80;;;;;;10498024;28;20037;-36
2023/07/07 09:09:45;;;;;;;3.28;1.67;;;26.20;47.30;;;;;;10471186;28;20041;-41
2023/07/07 09:14:50;;;;;;;2.80;1.33;;;26.40;50.50;;;;;;10482929;28;20068;-35
2023/07/07 09:19:56;;;;;;;2.33;1.05;;;26.60;49.20;;;;;;10478757;28;20044;-36
2023/07/07 09:25:02;;;;;;;4.65;1.38;;;26.80;49.60;;;;;;10480438;28;20053;-35
2023/07/07 09:30:20;;;;;;;3.90;1.60;;;26.80;48.20;;;;;;10484296;28;20474;-39
2023/07/07 09:35:28;;;;;;;2.90;1.60;;;26.80;49.60;;;;;;10474927;28;20044;-35
2023/07/07 09:40:40;;;;;;;3.10;1.70;;;26.80;49.50;;;;;;10461120;28;20049;-42
2023/07/07 09:46:07;;;;;;;3.47;1.50;;;27.00;46.90;;;;;;10466144;28;20044;-40
2023/07/07 09:51:17;;;;;;;3.22;1.63;;;27.40;46.60;;;;;;10463034;28;21247;-40
2023/07/07 09:56:24;;;;;;;2.63;1.60;;;27.10;48.60;;;;;;10480185;28;20135;-37
2023/07/07 10:01:31;;;;;;;2.78;1.77;;;27.10;48.90;;;;;;10483023;28;20409;-33
2023/07/07 10:06:38;;;;;;;4.43;1.88;;;27.10;48.60;;;;;;10481038;28;20045;-34
2023/07/07 10:11:42;;;;;;;4.38;1.83;;;27.10;47.20;;;;;;10484804;28;20079;-38
2023/07/07 10:16:55;;;;;;;2.58;1.80;;;27.30;48.70;;;;;;10490289;28;20048;-41
2023/07/07 10:21:58;;;;;;;5.32;1.85;;;27.30;48.20;;;;;;10479964;28;20052;-40
2023/07/07 10:27:00;;;;;;;3.35;1.65;;;27.40;48.10;;;;;;10488930;28;20473;-39
2023/07/07 10:32:03;;;;;;;3.35;1.77;;;27.50;47.90;;;;;;10479011;28;20197;-35
2023/07/07 10:37:18;;;;;;;8.02;2.15;;;27.60;49.00;;;;;;10480493;28;20110;-36
2023/07/07 10:42:23;;;;;;;4.75;2.83;;;27.70;48.00;;;;;;10467630;28;20060;-40
2023/07/07 10:47:29;;;;;;;3.65;1.88;;;27.70;48.20;;;;;;10480494;28;20049;-39
2023/07/07 10:52:50;;;;;;;3.50;1.70;;;27.90;47.00;;;;;;10478426;28;20131;-44
2023/07/07 10:58:03;;;;;;;3.67;1.80;;;27.80;48.20;;;;;;10481723;28;20500;-35
2023/07/07 11:03:38;;;;;;;2.78;1.52;;;27.90;47.50;;;;;;10484237;28;20041;-40
2023/07/07 11:08:50;;;;;;;4.65;1.70;;;28.30;47.20;;;;;;10475562;28;20354;-30
2023/07/07 11:14:10;;;;;;;1.42;1.30;;;28.00;47.40;;;;;;10484354;28;20147;-37
2023/07/07 11:19:34;;;;;;;5.22;1.92;;;28.20;48.40;;;;;;10479387;28;20048;-38
2023/07/07 11:24:42;;;;;;;2.35;1.35;;;28.30;47.20;;;;;;10473479;28;20364;-38
2023/07/07 11:29:55;;;;;;;3.75;2.35;;;28.30;46.60;;;;;;10485567;28;20469;-37
2023/07/07 11:35:18;;;;;;;3.50;2.00;;;28.60;46.90;;;;;;10480568;28;20047;-38
2023/07/07 11:40:43;;;;;;;1.92;1.52;;;28.50;47.20;;;;;;10489960;28;20058;-41
2023/07/07 11:46:02;;;;;;;6.13;2.33;;;28.80;47.10;;;;;;10487382;28;20069;-39
2023/07/07 11:51:26;;;;;;;4.72;2.70;;;28.80;44.80;;;;;;10481661;28;20075;-38
2023/07/07 11:56:56;;;;;;;3.92;1.73;;;29.20;41.60;;;;;;10494133;28;20062;-37
2023/07/07 12:02:00;;;;;;;5.07;2.35;;;29.50;41.60;;;;;;10479795;28;20473;-37
2023/07/07 12:07:06;;;;;;;2.88;2.30;;;29.80;42.70;;;;;;10486454;28;20102;-39
2023/07/07 12:12:14;;;;;;;2.83;2.00;;;30.10;43.30;;;;;;10488651;28;20143;-38
2023/07/07 12:17:22;;;;;;;3.20;2.20;;;30.00;42.40;;;;;;10487044;28;20036;-41
2023/07/07 12:22:30;;;;;;;3.05;1.95;;;30.40;40.70;;;;;;10476435;28;20072;-39
2023/07/07 12:27:39;;;;;;;2.60;1.98;;;30.20;43.40;;;;;;10471662;28;20083;-39
2023/07/07 12:32:41;;;;;;;5.55;2.40;;;30.00;45.70;;;;;;10486012;28;20234;-40
2023/07/07 12:37:44;;;;;;;3.85;1.88;;;31.00;38.70;;;;;;10485468;28;20496;-37
2023/07/07 12:42:59;;;;;;;9.45;2.60;;;31.70;37.80;;;;;;10479974;28;20040;-36
2023/07/07 12:48:03;;;;;;;5.43;2.03;;;32.00;36.20;;;;;;10483785;28;20048;-44
2023/07/07 12:53:11;;;;;;;4.55;2.50;;;32.40;36.80;;;;;;10490402;28;20515;-41
2023/07/07 12:58:31;;;;;;;3.13;2.00;;;32.50;35.60;;;;;;10489786;28;20045;-40
2023/07/07 13:03:34;;;;;;;12.05;4.47;;;32.50;35.60;;;;;;10486316;28;20656;-40
2023/07/07 13:08:37;;;;;;;4.18;2.50;;;33.30;36.00;;;;;;10487173;28;20102;-42
2023/07/07 13:13:45;;;;;;;2.70;2.00;;;33.60;36.00;;;;;;10494576;28;20056;-39
2023/07/07 13:18:47;;;;;;;5.38;2.40;;;33.40;35.20;;;;;;10492450;28;20123;-43
2023/07/07 13:23:51;;;;;;;3.85;2.30;;;33.30;35.60;;;;;;10470791;28;20570;-40
2023/07/07 13:28:59;;;;;;;7.38;2.72;;;34.40;34.80;;;;;;10482742;28;20098;-41
2023/07/07 13:34:01;;;;;;;3.28;2.40;;;34.60;35.50;;;;;;10476168;28;20080;-40
2023/07/07 13:39:04;;;;;;;5.97;2.33;;;34.40;36.10;;;;;;10477544;28;20528;-42
2023/07/07 13:44:16;;;;;;;2.72;1.80;;;35.30;34.50;;;;;;10481925;28;20051;-38
2023/07/07 13:49:20;;;;;;;6.25;2.05;;;35.30;40.30;;;;;;10482678;28;20503;-38
2023/07/07 13:54:25;;;;;;;3.63;1.90;;;35.30;38.50;;;;;;10480154;28;20128;-41
2023/07/07 13:59:31;;;;;;;5.28;2.20;;;35.20;39.60;;;;;;10482436;28;20036;-37
2023/07/07 14:04:36;;;;;;;3.75;2.28;;;36.20;35.40;;;;;;10472812;28;20098;-41
2023/07/07 14:09:41;;;;;;;6.88;3.00;;;36.80;34.80;;;;;;10473827;28;20098;-41
2023/07/07 14:14:49;;;;;;;5.97;2.45;;;36.70;34.20;;;;;;10483855;28;20107;-42
2023/07/07 14:19:55;;;;;;;6.43;2.60;;;37.50;33.20;;;;;;10482433;28;20446;-42
2023/07/07 14:24:58;;;;;;;3.67;2.60;;;36.40;36.50;;;;;;10480679;28;20048;-44
2023/07/07 14:30:01;;;;;;;7.18;2.67;;;35.40;37.00;;;;;;10481144;28;20072;-44
2023/07/07 14:35:12;;;;;;;3.80;2.50;;;37.10;34.00;;;;;;10476763;28;20117;-43
2023/07/07 14:40:25;;;;;;;3.40;2.35;;;37.70;34.50;;;;;;10483241;28;20044;-43
2023/07/07 14:45:31;;;;;;;2.15;1.85;;;38.90;33.40;;;;;;10480959;28;20646;-42
2023/07/07 14:50:33;;;;;;;4.10;2.70;;;38.70;38.30;;;;;;10465468;28;20055;-42
2023/07/07 14:55:35;;;;;;;4.80;2.38;;;37.80;34.70;;;;;;10480546;28;20196;-43
2023/07/07 15:00:40;;;;;;;6.55;2.70;;;39.00;35.90;;;;;;10476508;28;20405;-44
2023/07/07 15:05:44;;;;;;;2.20;1.80;;;39.60;32.00;;;;;;10482401;28;20052;-39
2023/07/07 15:10:45;;;;;;;5.70;2.97;;;37.80;43.70;;;;;;10481646;28;20052;-42
2023/07/07 15:15:50;;;;;;;5.13;3.25;;;39.70;32.40;;;;;;10483590;28;20394;-41
2023/07/07 15:20:52;;;;;;;3.45;2.40;;;40.10;33.80;;;;;;10476739;28;20479;-41
2023/07/07 15:25:54;;;;;;;7.90;3.70;;;40.00;32.10;;;;;;10469878;28;20064;-44
2023/07/07 15:30:57;;;;;;;4.55;2.85;;;40.90;32.00;;;;;;10477935;28;20132;-42
2023/07/07 15:35:59;;;;;;;4.97;3.17;;;41.10;32.70;;;;;;10465625;28;20151;-41
2023/07/07 15:41:01;;;;;;;4.10;2.33;;;40.70;32.30;;;;;;10468433;28;20228;-40
2023/07/07 15:46:09;;;;;;;4.38;2.80;;;41.20;35.10;;;;;;10466739;28;20262;-43
2023/07/07 15:51:29;;;;;;;5.18;2.85;;;41.30;32.90;;;;;;10460474;28;20143;-40
2023/07/07 15:56:33;;;;;;;5.25;2.63;;;40.50;35.40;;;;;;10468569;28;20143;-37
2023/07/07 16:01:37;;;;;;;9.25;2.63;;;40.50;42.30;;;;;;10479636;28;20145;-42
2023/07/07 16:06:39;;;;;;;7.80;2.90;;;42.60;32.10;;;;;;10482775;28;20055;-40
2023/07/07 16:11:41;;;;;;;6.03;3.30;;;41.70;35.40;;;;;;10482486;28;20047;-43
2023/07/07 16:16:46;;;;;;;7.25;2.78;;;42.00;31.40;;;;;;10480118;28;20093;-43
2023/07/07 16:21:49;;;;;;;6.03;2.95;;;42.00;31.10;;;;;;10477170;28;20450;-42
2023/07/07 16:26:51;;;;;;;4.50;2.78;;;42.10;33.70;;;;;;10472187;28;20044;-41
2023/07/07 16:31:54;;;;;;;3.10;2.80;;;41.80;35.30;;;;;;10484811;28;20049;-42
2023/07/07 16:36:56;;;;;;;3.17;2.15;;;41.20;34.70;;;;;;10479595;28;20052;-40
2023/07/07 16:41:58;;;;;;;4.82;2.80;;;41.00;44.50;;;;;;10488193;28;20139;-43
2023/07/07 16:47:01;;;;;;;6.38;3.47;;;40.50;36.90;;;;;;10486773;28;20076;-43
2023/07/07 16:52:04;;;;;;;4.18;2.45;;;39.50;40.60;;;;;;10485930;28;20464;-41
2023/07/07 16:57:08;;;;;;;4.35;3.60;;;41.50;35.40;;;;;;10487468;28;20046;-40
2023/07/07 17:02:12;;;;;;;6.32;4.07;;;40.10;43.90;;;;;;10488700;28;20128;-43
2023/07/07 17:07:13;;;;;;;8.55;5.38;;;40.90;34.60;;;;;;10479281;28;20051;-41
2023/07/07 17:12:15;;;;;;;4.97;2.80;;;43.30;30.90;;;;;;10485954;28;20045;-40
2023/07/07 17:17:19;;;;;;;5.68;2.38;;;42.70;31.90;;;;;;10478726;28;20055;-43
2023/07/07 17:22:20;;;;;;;6.18;3.70;;;42.70;31.80;;;;;;10470496;28;20404;-39
2023/07/07 17:27:24;;;;;;;4.55;3.20;;;41.90;32.40;;;;;;10476569;28;20076;-43
2023/07/07 17:32:28;;;;;;;2.90;2.08;;;42.10;31.60;;;;;;10488856;28;20051;-42
2023/07/07 17:37:30;;;;;;;4.53;2.20;;;42.40;33.60;;;;;;10485928;28;20617;-36
2023/07/07 17:42:32;;;;;;;9.32;2.33;;;42.10;33.20;;;;;;10501596;28;20068;-42
2023/07/07 17:47:35;;;;;;;4.78;2.30;;;41.80;33.10;;;;;;10488031;28;20080;-44
2023/07/07 17:52:38;;;;;;;4.25;1.90;;;42.00;34.10;;;;;;10477194;28;20131;-42
2023/07/07 17:57:40;;;;;;;3.47;1.85;;;41.30;32.80;;;;;;10473080;28;20070;-41
2023/07/07 18:02:43;;;;;;;3.50;2.00;;;41.70;32.50;;;;;;10471718;28;20085;-43
2023/07/07 18:07:46;;;;;;;4.93;1.73;;;41.30;37.90;;;;;;10481497;28;20060;-43
2023/07/07 18:12:50;;;;;;;4.35;2.35;;;41.00;33.30;;;;;;10487179;28;20590;-41
2023/07/07 18:17:53;;;;;;;3.92;1.50;;;40.40;33.40;;;;;;10492498;28;20056;-45
2023/07/07 18:22:55;;;;;;;4.40;1.98;;;41.00;47.30;;;;;;10478463;28;20437;-44
2023/07/07 18:27:57;;;;;;;2.15;1.40;;;39.90;49.70;;;;;;10478610;28;20572;-45
2023/07/07 18:33:00;;;;;;;2.45;1.55;;;40.10;50.60;;;;;;10484860;28;20838;-41
2023/07/07 18:38:02;;;;;;;2.85;1.73;;;39.30;51.60;;;;;;10487572;28;20084;-40
2023/07/07 18:43:04;;;;;;;2.72;1.52;;;39.30;50.30;;;;;;10487151;28;20091;-41
2023/07/07 18:48:14;;;;;;;2.08;1.60;;;39.30;47.50;;;;;;10487224;28;20201;-42
2023/07/07 18:53:17;;;;;;;2.33;1.50;;;39.20;48.60;;;;;;10489578;28;20072;-42
2023/07/07 18:58:19;;;;;;;2.78;1.60;;;38.20;48.30;;;;;;10486093;28;20052;-42
2023/07/07 19:03:22;;;;;;;2.13;1.13;;;38.20;47.80;;;;;;10483862;28;20072;-44
2023/07/07 19:08:24;;;;;;;1.60;1.35;;;38.20;52.30;;;;;;10483987;28;20044;-41
2023/07/07 19:13:26;;;;;;;2.85;1.35;;;38.00;50.30;;;;;;10472518;28;20048;-41
2023/07/07 19:18:34;;;;;;;4.38;1.63;;;37.80;52.00;;;;;;10474200;28;20056;-43
2023/07/07 19:23:36;;;;;;;2.83;1.38;;;37.50;46.20;;;;;;10467932;28;20068;-40
2023/07/07 19:28:38;;;;;;;1.08;1.00;;;37.70;53.80;;;;;;10479218;28;20122;-44
2023/07/07 19:33:41;;;;;;;1.58;1.48;;;37.80;55.50;;;;;;10474237;28;20482;-43
2023/07/07 19:38:44;;;;;;;1.80;1.08;;;37.60;54.90;;;;;;10480170;28;20545;-43
2023/07/07 19:43:47;;;;;;;1.58;1.25;;;37.40;53.60;;;;;;10474597;28;20045;-39
2023/07/07 19:48:51;;;;;;;3.13;1.20;;;37.00;54.70;;;;;;10488678;28;20132;-44
2023/07/07 19:53:54;;;;;;;1.70;1.40;;;36.90;54.30;;;;;;10489431;28;20465;-40
2023/07/07 19:58:58;;;;;;;1.30;1.15;;;36.60;53.70;;;;;;10485696;28;20451;-40
2023/07/07 20:04:01;;;;;;;1.55;1.23;;;36.40;53.90;;;;;;10501462;28;20052;-41
2023/07/07 20:09:03;;;;;;;1.23;1.13;;;36.20;54.10;;;;;;10501567;28;20036;-43
2023/07/07 20:14:05;;;;;;;1.90;1.10;;;36.00;53.90;;;;;;10488531;28;20098;-39
2023/07/07 20:19:14;;;;;;;2.08;1.48;;;35.80;53.50;;;;;;10491071;28;20048;-41
2023/07/07 20:24:18;;;;;;;1.70;1.00;;;35.60;53.70;;;;;;10491780;28;20064;-41
2023/07/07 20:29:21;;;;;;;1.83;1.08;;;35.50;53.80;;;;;;10493231;28;20503;-44
2023/07/07 20:34:25;;;;;;;1.83;1.40;;;35.30;53.80;;;;;;10490820;28;20133;-39
2023/07/07 20:39:27;;;;;;;1.92;1.25;;;35.20;53.60;;;;;;10493914;28;20093;-44
2023/07/07 20:44:29;;;;;;;3.53;1.58;;;35.10;53.50;;;;;;10485637;28;20606;-45
2023/07/07 20:49:32;;;;;;;2.67;1.35;;;34.90;53.50;;;;;;10478635;28;20068;-41
2023/07/07 20:54:34;;;;;;;1.60;1.33;;;34.60;53.00;;;;;;10479091;28;20049;-37
2023/07/07 20:59:37;;;;;;;2.50;1.65;;;34.40;52.60;;;;;;10489870;28;20041;-43
2023/07/07 21:04:40;;;;;;;3.63;1.48;;;34.30;52.50;;;;;;10493273;28;20131;-43
2023/07/07 21:09:42;;;;;;;2.83;1.52;;;34.20;52.40;;;;;;10481291;28;20044;-44
2023/07/07 21:14:44;;;;;;;3.28;1.35;;;34.10;52.20;;;;;;10482036;28;20155;-39
2023/07/07 21:19:47;;;;;;;3.78;2.03;;;34.00;52.30;;;;;;10493092;28;20090;-40
2023/07/07 21:24:49;;;;;;;4.22;1.77;;;33.80;52.10;;;;;;10501870;28;20135;-39
2023/07/07 21:29:51;;;;;;;4.97;1.92;;;33.70;51.90;;;;;;10484036;28;20064;-39
2023/07/07 21:34:54;;;;;;;4.97;1.90;;;33.60;51.80;;;;;;10477164;28;20052;-40
2023/07/07 21:39:56;;;;;;;6.72;1.70;;;33.40;51.80;;;;;;10491134;28;20497;-44
2023/07/07 21:44:58;;;;;;;6.63;1.95;;;33.30;51.60;;;;;;10476667;28;21280;-41
2023/07/07 21:50:01;;;;;;;4.50;2.08;;;33.30;51.50;;;;;;10501589;28;20127;-40
2023/07/07 21:55:04;;;;;;;4.82;2.05;;;33.20;51.50;;;;;;10490658;28;20602;-41
2023/07/07 22:00:16;;;;;;;6.57;2.13;;;33.10;51.50;;;;;;10477919;28;20048;-44
2023/07/07 22:05:21;;;;;;;6.25;2.00;;;33.00;51.30;;;;;;10485353;28;20040;-43
2023/07/07 22:10:38;;;;;;;6.55;1.77;;;32.80;51.30;;;;;;10488122;28;20183;-42
2023/07/07 22:15:41;;;;;;;9.07;1.98;;;32.80;51.30;;;;;;10485596;28;20071;-39
2023/07/07 22:20:48;;;;;;;3.60;1.88;;;32.70;51.10;;;;;;10484358;28;20083;-41
2023/07/07 22:25:50;;;;;;;5.22;1.92;;;32.60;51.00;;;;;;10482633;28;20105;-40
2023/07/07 22:30:53;;;;;;;4.80;2.10;;;32.50;51.60;;;;;;10483437;28;20152;-42
2023/07/07 22:35:57;;;;;;;4.35;1.70;;;32.40;50.70;;;;;;10481751;28;20647;-40
2023/07/07 22:40:59;;;;;;;3.97;1.70;;;32.30;51.20;;;;;;10484405;28;20567;-42
2023/07/07 22:46:02;;;;;;;3.97;1.80;;;32.20;50.80;;;;;;10484791;28;20119;-41
2023/07/07 22:51:09;;;;;;;3.85;2.22;;;32.00;51.60;;;;;;10478675;28;20124;-39
2023/07/07 22:56:22;;;;;;;2.47;1.85;;;32.00;51.00;;;;;;10477665;28;20052;-44
2023/07/07 23:01:24;;;;;;;5.25;1.80;;;32.00;50.70;;;;;;10484495;28;20071;-40
2023/07/07 23:06:27;;;;;;;4.05;1.60;;;31.90;50.70;;;;;;10485040;28;20147;-40
2023/07/07 23:11:29;;;;;;;5.07;2.10;;;31.80;50.90;;;;;;10482308;28;20089;-43
2023/07/07 23:16:31;;;;;;;2.20;1.45;;;31.80;50.70;;;;;;10483788;28;20164;-42
2023/07/07 23:21:34;;;;;;;4.03;1.73;;;31.70;51.10;;;;;;10482108;28;20052;-43
2023/07/07 23:26:36;;;;;;;1.55;1.45;;;31.60;51.20;;;;;;10482301;28;20133;-42
2023/07/07 23:31:38;;;;;;;3.30;1.80;;;31.60;50.70;;;;;;10485803;28;20385;-40
2023/07/07 23:36:41;;;;;;;2.97;1.88;;;31.50;50.50;;;;;;10491235;28;20048;-41
2023/07/07 23:41:44;;;;;;;2.47;1.58;;;31.50;50.70;;;;;;10491562;28;20072;-42
2023/07/07 23:46:47;;;;;;;3.00;1.95;;;31.40;50.70;;;;;;10491781;28;20142;-37
2023/07/07 23:51:50;;;;;;;2.08;1.73;;;31.30;50.60;;;;;;10492332;28;20124;-43
2023/07/07 23:56:52;;;;;;;3.20;1.80;;;31.20;50.60;;;;;;10492317;28;20084;-38
